createdAt,value
2022-10-03T00:02:46.816Z,97838.56
2022-10-03T00:05:32.371Z,97828.72
2022-10-03T00:08:10.275Z,97825.44
2022-10-03T00:10:53.848Z,97842.78
2022-10-03T00:13:28.538Z,97839.59
2022-10-03T00:16:07.388Z,97837.88
2022-10-03T00:18:47.482Z,97845.72
2022-10-03T00:21:27.982Z,97841.97
2022-10-03T00:24:06.059Z,97838.13
2022-10-03T00:26:46.669Z,97841.84
2022-10-03T00:29:46.921Z,97835.06
2022-10-03T00:32:30.226Z,97831.56
2022-10-03T00:35:20.117Z,97828.59
2022-10-03T00:37:59.999Z,97842.88
2022-10-03T00:40:48.309Z,97838.69
2022-10-03T00:43:43.265Z,97840.16
2022-10-03T00:46:35.723Z,97839.38
2022-10-03T00:49:37.888Z,97827.47
2022-10-03T00:52:20.180Z,97837.69
2022-10-03T00:55:02.557Z,97829.53
2022-10-03T00:57:59.365Z,97827.72
2022-10-03T01:00:29.678Z,97826.13
2022-10-03T01:03:15.287Z,97820.91
2022-10-03T01:05:58.897Z,97816.25
2022-10-03T01:08:41.197Z,97826.34
2022-10-03T01:11:23.366Z,97821.69
2022-10-03T01:14:04.293Z,97831.09
2022-10-03T01:16:44.270Z,97831.00
2022-10-03T01:19:34.166Z,97832.00
2022-10-03T01:22:22.721Z,97817.59
2022-10-03T01:24:58.464Z,97816.84
2022-10-03T01:27:59.588Z,97813.22
2022-10-03T01:30:36.285Z,97817.72
2022-10-03T01:33:11.212Z,97804.38
2022-10-03T01:35:48.941Z,97809.81
2022-10-03T01:38:22.801Z,97798.16
2022-10-03T01:40:59.045Z,97800.75
2022-10-03T01:43:35.497Z,97801.19
2022-10-03T01:46:16.774Z,97800.06
2022-10-03T01:48:55.318Z,97797.34
2022-10-03T01:51:29.804Z,97803.34
2022-10-03T01:54:13.509Z,97799.16
2022-10-03T01:56:47.807Z,97800.63
2022-10-03T01:59:21.185Z,97811.41
2022-10-03T02:01:56.170Z,97811.84
2022-10-03T02:04:37.156Z,97818.19
2022-10-03T02:07:14.064Z,97815.25
2022-10-03T02:09:54.040Z,97809.34
2022-10-03T02:12:30.637Z,97807.44
2022-10-03T02:15:02.265Z,97814.09
2022-10-03T02:17:47.989Z,97816.38
2022-10-03T02:20:25.680Z,97818.19
2022-10-03T02:22:56.365Z,97819.78
2022-10-03T02:25:43.950Z,97821.13
2022-10-03T02:28:30.337Z,97824.09
2022-10-03T02:31:19.654Z,97825.22
2022-10-03T02:34:07.773Z,97826.69
2022-10-03T02:37:00.753Z,97822.28
2022-10-03T02:40:01.518Z,97823.41
2022-10-03T02:43:21.837Z,97829.28
2022-10-03T02:46:22.953Z,97828.16
2022-10-03T02:49:12.378Z,97818.88
2022-10-03T02:52:16.217Z,97809.81
2022-10-03T02:54:56.237Z,97814.00
2022-10-03T02:58:05.534Z,97819.78
2022-10-03T03:00:53.377Z,97824.06
2022-10-03T03:03:58.222Z,97817.25
2022-10-03T03:06:55.466Z,97809.75
2022-10-03T03:09:54.517Z,97809.56
2022-10-03T03:13:00.058Z,97810.94
2022-10-03T03:16:05.442Z,97814.06
2022-10-03T03:18:38.281Z,97816.78
2022-10-03T03:21:21.677Z,97815.97
2022-10-03T03:24:16.442Z,97816.13
2022-10-03T03:27:19.451Z,97816.66
2022-10-03T03:29:57.398Z,97807.72
2022-10-03T03:32:39.974Z,97812.97
2022-10-03T03:35:19.100Z,97819.97
2022-10-03T03:37:57.969Z,97818.41
2022-10-03T03:40:40.679Z,97810.38
2022-10-03T03:43:41.797Z,97817.06
2022-10-03T03:46:32.635Z,97810.94
2022-10-03T03:49:31.745Z,97806.63
2022-10-03T03:52:13.830Z,97804.72
2022-10-03T03:54:51.958Z,97801.41
2022-10-03T03:57:41.526Z,97807.44
2022-10-03T04:00:16.476Z,97800.53
2022-10-03T04:03:01.810Z,97802.44
2022-10-03T04:05:52.475Z,97798.47
2022-10-03T04:08:40.230Z,97801.75
2022-10-03T04:11:23.145Z,97795.63
2022-10-03T04:14:50.003Z,97806.19
2022-10-03T04:17:52.911Z,97793.50
2022-10-03T04:20:34.670Z,97800.28
2022-10-03T04:23:18.694Z,97802.53
2022-10-03T04:26:18.091Z,97793.94
2022-10-03T04:28:59.820Z,97799.59
2022-10-03T04:31:42.131Z,97794.38
2022-10-03T04:34:25.432Z,97798.94
2022-10-03T04:37:11.564Z,97795.75
2022-10-03T04:39:49.906Z,97794.19
2022-10-03T04:42:28.949Z,97793.38
2022-10-03T04:45:19.824Z,97791.78
2022-10-03T04:47:54.704Z,97798.69
2022-10-03T04:50:35.101Z,97797.22
2022-10-03T04:53:20.430Z,97807.66
2022-10-03T04:55:51.091Z,97814.56
2022-10-03T04:58:31.127Z,97802.88
2022-10-03T05:01:11.261Z,97804.13
2022-10-03T05:03:49.876Z,97801.31
2022-10-03T05:06:33.129Z,97803.69
2022-10-03T05:09:16.606Z,97791.78
2022-10-03T05:11:59.698Z,97806.84
2022-10-03T05:14:40.275Z,97795.75
2022-10-03T05:17:19.750Z,97805.25
2022-10-03T05:20:01.594Z,97805.72
2022-10-03T05:22:47.012Z,97801.66
2022-10-03T05:25:29.025Z,97814.34
2022-10-03T05:28:08.082Z,97798.34
2022-10-03T05:30:44.761Z,97804.13
2022-10-03T05:33:23.226Z,97809.13
2022-10-03T05:36:07.392Z,97772.16
2022-10-03T05:39:16.893Z,97814.09
2022-10-03T05:42:17.892Z,97792.56
2022-10-03T05:44:46.546Z,97809.09
2022-10-03T05:47:40.970Z,97813.66
2022-10-03T05:50:36.236Z,97818.63
2022-10-03T05:53:21.549Z,97819.31
2022-10-03T05:56:00.156Z,97834.50
2022-10-03T05:59:08.235Z,97825.88
2022-10-03T06:01:57.635Z,97831.31
2022-10-03T06:05:01.342Z,97834.25
2022-10-03T06:07:31.713Z,97834.50
2022-10-03T06:10:39.006Z,97829.50
2022-10-03T06:13:16.473Z,97827.69
2022-10-03T06:16:00.682Z,97851.16
2022-10-03T06:18:55.805Z,97837.88
2022-10-03T06:22:14.092Z,97844.25
2022-10-03T06:25:09.487Z,97846.38
2022-10-03T06:28:09.917Z,97853.19
2022-10-03T06:30:55.549Z,97850.94
2022-10-03T06:34:03.702Z,97849.34
2022-10-03T06:36:48.709Z,97857.84
2022-10-03T06:39:51.757Z,97850.81
2022-10-03T06:42:44.830Z,97856.47
2022-10-03T06:45:49.909Z,97860.22
2022-10-03T06:48:50.138Z,97859.53
2022-10-03T06:51:51.495Z,97846.28
2022-10-03T06:54:59.024Z,97850.34
2022-10-03T06:57:52.824Z,97864.88
2022-10-03T07:00:23.430Z,97868.97
2022-10-03T07:03:22.810Z,97866.47
2022-10-03T07:06:30.149Z,97859.75
2022-10-03T07:09:28.348Z,97864.66
2022-10-03T07:12:20.189Z,97860.22
2022-10-03T07:15:17.466Z,97865.88
2022-10-03T07:18:24.256Z,97856.38
2022-10-03T07:21:31.139Z,97847.97
2022-10-03T07:24:19.535Z,97841.41
2022-10-03T07:27:04.701Z,97861.69
2022-10-03T07:29:59.757Z,97864.16
2022-10-03T07:32:59.028Z,97871.44
2022-10-03T07:36:03.805Z,97855.34
2022-10-03T07:39:00.729Z,97863.97
2022-10-03T07:41:47.840Z,97863.41
2022-10-03T07:44:51.716Z,97859.88
2022-10-03T07:47:55.032Z,97867.47
2022-10-03T07:50:51.094Z,97873.28
2022-10-03T07:53:52.618Z,97879.84
2022-10-03T07:56:43.365Z,97877.13
2022-10-03T07:59:43.724Z,97869.97
2022-10-03T08:02:31.317Z,97880.97
2022-10-03T08:05:20.922Z,97873.38
2022-10-03T08:08:09.379Z,97875.19
2022-10-03T08:11:07.972Z,97872.81
2022-10-03T08:13:54.879Z,97876.66
2022-10-03T08:16:46.718Z,97858.59
2022-10-03T08:19:30.610Z,97864.78
2022-10-03T08:22:11.837Z,97867.22
2022-10-03T08:25:11.752Z,97864.88
2022-10-03T08:27:53.654Z,97862.00
2022-10-03T08:30:34.426Z,97860.25
2022-10-03T08:33:48.862Z,97852.44
2022-10-03T08:36:51.994Z,97858.66
2022-10-03T08:39:44.930Z,97856.66
2022-10-03T08:42:42.164Z,97863.22
2022-10-03T08:45:36.943Z,97858.69
2022-10-03T08:48:42.114Z,97860.34
2022-10-03T08:51:40.607Z,97866.38
2022-10-03T08:54:25.467Z,97867.97
2022-10-03T08:57:08.474Z,97872.53
2022-10-03T09:00:11.785Z,97890.22
2022-10-03T09:03:31.532Z,97879.13
2022-10-03T09:06:24.363Z,97874.28
2022-10-03T09:09:12.999Z,97882.31
2022-10-03T09:11:55.414Z,97891.16
2022-10-03T09:14:36.347Z,97879.13
2022-10-03T09:17:20.189Z,97890.09
2022-10-03T09:20:12.728Z,97899.22
2022-10-03T09:22:59.311Z,97885.25
2022-10-03T09:25:45.726Z,97898.16
2022-10-03T09:28:49.801Z,97904.31
2022-10-03T09:31:35.642Z,97899.78
2022-10-03T09:34:42.031Z,97899.00
2022-10-03T09:37:44.425Z,97901.72
2022-10-03T09:40:33.334Z,97898.06
2022-10-03T09:43:35.125Z,97896.16
2022-10-03T09:46:25.992Z,97902.47
2022-10-03T09:49:35.249Z,97894.06
2022-10-03T09:52:24.636Z,97903.41
2022-10-03T09:55:08.418Z,97895.22
2022-10-03T09:58:12.085Z,97887.06
2022-10-03T10:01:03.792Z,97892.69
2022-10-03T10:04:00.110Z,97895.22
2022-10-03T10:06:40.923Z,97902.03
2022-10-03T10:09:31.761Z,97895.44
2022-10-03T10:12:14.847Z,97890.00
2022-10-03T10:15:11.227Z,97887.59
2022-10-03T10:18:24.361Z,97895.13
2022-10-03T10:21:32.708Z,97906.91
2022-10-03T10:24:28.175Z,97895.88
2022-10-03T10:27:19.178Z,97883.72
2022-10-03T10:30:12.045Z,97890.19
2022-10-03T10:33:12.103Z,97890.63
2022-10-03T10:36:17.371Z,97862.44
2022-10-03T10:39:22.537Z,97905.38
2022-10-03T10:42:38.993Z,97900.84
2022-10-03T10:45:39.982Z,97899.25
2022-10-03T10:49:13.626Z,97888.53
2022-10-03T10:52:00.078Z,97898.38
2022-10-03T10:55:03.796Z,97883.78
2022-10-03T10:58:07.192Z,97894.91
2022-10-03T11:00:57.621Z,97899.78
2022-10-03T11:04:00.028Z,97893.19
2022-10-03T11:07:07.680Z,97883.09
2022-10-03T11:10:10.641Z,97885.03
2022-10-03T11:13:15.757Z,97890.47
2022-10-03T11:16:35.110Z,97893.22
2022-10-03T11:19:41.832Z,97909.06
2022-10-03T11:22:49.203Z,97911.34
2022-10-03T11:25:43.877Z,97904.88
2022-10-03T11:28:53.500Z,97915.09
2022-10-03T11:32:00.291Z,97912.13
2022-10-03T11:35:16.489Z,97926.63
2022-10-03T11:37:50.869Z,97915.41
2022-10-03T11:40:33.950Z,97928.34
2022-10-03T11:43:34.632Z,97909.53
2022-10-03T11:46:21.009Z,97929.69
2022-10-03T11:48:55.835Z,97934.00
2022-10-03T11:51:42.250Z,97921.66
2022-10-03T11:54:31.195Z,97940.81
2022-10-03T11:57:07.192Z,97926.31
2022-10-03T11:59:52.164Z,97926.72
2022-10-03T12:02:40.094Z,97923.78
2022-10-03T12:05:19.814Z,97928.69
2022-10-03T12:08:13.714Z,97942.50
2022-10-03T12:10:51.307Z,97913.59
2022-10-03T12:13:23.970Z,97935.38
2022-10-03T12:15:54.697Z,97942.63
2022-10-03T12:18:34.580Z,97937.19
2022-10-03T12:21:17.320Z,97950.19
2022-10-03T12:24:01.057Z,97942.81
2022-10-03T12:26:43.890Z,97948.72
2022-10-03T12:29:13.282Z,97941.03
2022-10-03T12:31:50.269Z,97944.88
2022-10-03T12:34:40.436Z,97950.88
2022-10-03T12:37:27.315Z,97955.31
2022-10-03T12:40:05.761Z,97962.34
2022-10-03T12:42:43.296Z,97963.94
2022-10-03T12:45:21.252Z,97965.97
2022-10-03T12:48:01.439Z,97962.34
2022-10-03T12:50:43.114Z,97965.53
2022-10-03T12:53:32.698Z,97969.16
2022-10-03T12:56:08.145Z,97974.69
2022-10-03T12:58:55.978Z,97971.22
2022-10-03T13:01:36.006Z,97972.44
2022-10-03T13:04:14.825Z,97976.19
2022-10-03T13:07:03.729Z,97970.50
2022-10-03T13:10:03.324Z,97968.03
2022-10-03T13:12:40.220Z,97968.81
2022-10-03T13:15:44.342Z,97973.00
2022-10-03T13:18:35.240Z,97956.69
2022-10-03T13:21:33.463Z,97953.72
2022-10-03T13:24:02.092Z,97968.25
2022-10-03T13:26:48.377Z,97975.72
2022-10-03T13:29:23.756Z,97983.16
2022-10-03T13:32:25.150Z,97974.56
2022-10-03T13:35:34.413Z,97971.66
2022-10-03T13:38:26.304Z,97962.13
2022-10-03T13:41:01.642Z,97982.53
2022-10-03T13:43:36.672Z,97973.78
2022-10-03T13:46:08.485Z,97977.59
2022-10-03T13:48:38.450Z,97980.22
2022-10-03T13:51:15.978Z,97975.81
2022-10-03T13:53:56.077Z,97971.06
2022-10-03T13:56:40.085Z,97972.28
2022-10-03T13:59:22.874Z,97967.97
2022-10-03T14:01:56.778Z,97978.88
2022-10-03T14:04:50.251Z,97976.72
2022-10-03T14:07:28.757Z,97963.22
2022-10-03T14:10:13.181Z,97972.53
2022-10-03T14:12:57.810Z,97979.34
2022-10-03T14:15:34.556Z,97965.97
2022-10-03T14:18:13.378Z,97968.00
2022-10-03T14:21:21.419Z,97972.44
2022-10-03T14:23:57.936Z,97976.53
2022-10-03T14:26:30.784Z,97982.69
2022-10-03T14:29:04.191Z,97980.50
2022-10-03T14:31:40.036Z,97984.81
2022-10-03T14:34:20.397Z,97978.22
2022-10-03T14:36:55.155Z,97978.69
2022-10-03T14:39:36.885Z,97984.78
2022-10-03T14:42:28.577Z,97988.38
2022-10-03T14:44:59.593Z,97991.03
2022-10-03T14:47:35.557Z,98002.59
2022-10-03T14:50:04.812Z,98005.22
2022-10-03T14:52:41.502Z,98004.53
2022-10-03T14:55:17.652Z,98001.38
2022-10-03T14:58:09.716Z,98011.34
2022-10-03T15:00:43.734Z,98004.31
2022-10-03T15:03:22.435Z,98020.19
2022-10-03T15:06:01.552Z,98018.38
2022-10-03T15:08:39.250Z,98023.59
2022-10-03T15:11:08.811Z,98026.09
2022-10-03T15:13:42.332Z,98034.94
2022-10-03T15:16:14.886Z,98032.56
2022-10-03T15:18:53.769Z,98033.25
2022-10-03T15:21:22.877Z,98032.09
2022-10-03T15:23:57.238Z,98033.34
2022-10-03T15:26:29.141Z,98031.44
2022-10-03T15:29:00.888Z,98036.63
2022-10-03T15:31:35.789Z,98039.34
2022-10-03T15:34:08.094Z,98042.50
2022-10-03T15:36:39.674Z,98032.75
2022-10-03T15:39:22.409Z,98036.63
2022-10-03T15:41:54.552Z,98031.25
2022-10-03T15:44:32.731Z,98039.22
2022-10-03T15:47:05.378Z,98019.72
2022-10-03T15:49:39.360Z,98031.38
2022-10-03T15:52:16.745Z,98033.78
2022-10-03T15:54:56.883Z,98024.69
2022-10-03T15:57:40.032Z,98024.91
2022-10-03T16:00:09.780Z,98036.16
2022-10-03T16:02:42.337Z,98032.19
2022-10-03T16:05:19.784Z,98041.72
2022-10-03T16:07:58.637Z,98052.28
2022-10-03T16:10:32.025Z,98049.31
2022-10-03T16:13:06.356Z,98051.03
2022-10-03T16:15:50.863Z,98056.72
2022-10-03T16:18:46.885Z,98067.00
2022-10-03T16:21:26.942Z,98067.34
2022-10-03T16:23:58.837Z,98064.97
2022-10-03T16:26:31.117Z,98067.59
2022-10-03T16:29:09.801Z,98083.16
2022-10-03T16:31:42.086Z,98081.44
2022-10-03T16:34:14.218Z,98078.47
2022-10-03T16:36:44.739Z,98087.78
2022-10-03T16:39:21.719Z,98077.44
2022-10-03T16:41:55.393Z,98069.19
2022-10-03T16:44:28.369Z,98076.09
2022-10-03T16:47:02.662Z,98078.22
2022-10-03T16:49:57.190Z,98083.69
2022-10-03T16:52:33.609Z,98087.22
2022-10-03T16:55:05.704Z,98079.38
2022-10-03T16:57:45.559Z,98086.06
2022-10-03T17:00:18.670Z,98082.44
2022-10-03T17:02:48.772Z,98081.44
2022-10-03T17:05:18.460Z,98085.03
2022-10-03T17:07:49.287Z,98065.94
2022-10-03T17:10:41.660Z,98085.72
2022-10-03T17:13:16.927Z,98079.91
2022-10-03T17:15:53.549Z,98090.69
2022-10-03T17:18:27.088Z,98095.91
2022-10-03T17:21:01.759Z,98097.72
2022-10-03T17:23:35.936Z,98103.59
2022-10-03T17:26:10.600Z,98098.03
2022-10-03T17:28:44.483Z,98101.34
2022-10-03T17:31:29.295Z,98106.78
2022-10-03T17:34:05.111Z,98088.94
2022-10-03T17:37:04.676Z,98110.59
2022-10-03T17:39:39.890Z,98113.31
2022-10-03T17:42:19.854Z,98129.66
2022-10-03T17:44:59.607Z,98117.78
2022-10-03T17:47:38.854Z,98118.75
2022-10-03T17:50:14.240Z,98123.28
2022-10-03T17:52:45.351Z,98101.28
2022-10-03T17:55:19.581Z,98106.94
2022-10-03T17:57:51.772Z,98126.59
2022-10-03T18:00:22.892Z,98119.44
2022-10-03T18:03:01.841Z,98123.28
2022-10-03T18:05:35.110Z,98123.63
2022-10-03T18:08:07.496Z,98120.56
2022-10-03T18:10:39.480Z,98118.75
2022-10-03T18:13:18.040Z,98115.56
2022-10-03T18:16:07.803Z,98122.13
2022-10-03T18:19:10.353Z,98120.53
2022-10-03T18:22:02.386Z,98120.09
2022-10-03T18:24:47.289Z,98107.13
2022-10-03T18:27:52.304Z,98118.38
2022-10-03T18:30:24.460Z,98115.56
2022-10-03T18:32:58.589Z,98121.00
2022-10-03T18:35:30.153Z,98121.00
2022-10-03T18:38:06.253Z,98132.31
2022-10-03T18:40:37.774Z,98129.25
2022-10-03T18:43:07.622Z,98126.09
2022-10-03T18:45:44.404Z,98134.34
2022-10-03T18:48:20.512Z,98134.34
2022-10-03T18:50:59.518Z,98138.34
2022-10-03T18:53:35.540Z,98147.31
2022-10-03T18:56:07.562Z,98144.28
2022-10-03T18:58:38.713Z,98149.97
2022-10-03T19:01:15.592Z,98143.06
2022-10-03T19:03:50.792Z,98137.72
2022-10-03T19:06:22.883Z,98133.13
2022-10-03T19:08:52.554Z,98138.34
2022-10-03T19:11:25.481Z,98138.13
2022-10-03T19:14:01.099Z,98136.97
2022-10-03T19:16:59.280Z,98134.72
2022-10-03T19:19:35.461Z,98144.00
2022-10-03T19:22:06.601Z,98141.50
2022-10-03T19:24:57.287Z,98144.69
2022-10-03T19:27:28.960Z,98148.31
2022-10-03T19:29:58.741Z,98150.69
2022-10-03T19:32:32.482Z,98147.19
2022-10-03T19:35:05.911Z,98152.63
2022-10-03T19:37:45.492Z,98149.91
2022-10-03T19:40:33.927Z,98153.56
2022-10-03T19:43:20.096Z,98160.09
2022-10-03T19:45:50.827Z,98164.03
2022-10-03T19:48:23.060Z,98168.69
2022-10-03T19:50:52.388Z,98154.09
2022-10-03T19:53:21.104Z,98155.28
2022-10-03T19:55:50.849Z,98158.66
2022-10-03T19:58:24.271Z,98161.00
2022-10-03T20:00:55.135Z,98156.88
2022-10-03T20:03:30.188Z,98147.41
2022-10-03T20:06:02.437Z,98158.06
2022-10-03T20:08:39.806Z,98144.28
2022-10-03T20:11:21.950Z,98154.59
2022-10-03T20:13:50.975Z,98153.69
2022-10-03T20:16:22.435Z,98159.13
2022-10-03T20:18:53.480Z,98165.75
2022-10-03T20:21:27.685Z,98164.03
2022-10-03T20:23:56.633Z,98167.81
2022-10-03T20:26:34.673Z,98163.38
2022-10-03T20:29:16.297Z,98162.84
2022-10-03T20:31:45.371Z,98167.06
2022-10-03T20:34:16.733Z,98171.88
2022-10-03T20:36:51.138Z,98167.06
2022-10-03T20:39:22.902Z,98163.25
2022-10-03T20:42:00.496Z,98155.16
2022-10-03T20:44:55.339Z,98164.50
2022-10-03T20:47:39.013Z,98162.31
2022-10-03T20:50:15.241Z,98172.50
2022-10-03T20:52:51.004Z,98171.53
2022-10-03T20:55:22.800Z,98166.63
2022-10-03T20:57:59.950Z,98162.97
2022-10-03T21:00:29.841Z,98169.06
2022-10-03T21:03:02.189Z,98167.69
2022-10-03T21:05:35.014Z,98145.41
2022-10-03T21:08:06.526Z,98171.72
2022-10-03T21:10:38.463Z,98168.19
2022-10-03T21:13:09.737Z,98174.09
2022-10-03T21:15:46.223Z,98172.50
2022-10-03T21:18:22.084Z,98158.28
2022-10-03T21:21:00.280Z,98173.91
2022-10-03T21:23:33.150Z,98177.88
2022-10-03T21:26:01.510Z,98173.13
2022-10-03T21:28:32.617Z,98176.66
2022-10-03T21:31:35.805Z,98181.16
2022-10-03T21:34:08.710Z,98175.25
2022-10-03T21:36:41.473Z,98171.03
2022-10-03T21:39:21.359Z,98181.28
2022-10-03T21:42:04.124Z,98162.59
2022-10-03T21:44:50.309Z,98180.00
2022-10-03T21:47:37.104Z,98171.41
2022-10-03T21:50:08.264Z,98177.16
2022-10-03T21:53:00.030Z,98178.72
2022-10-03T21:55:53.062Z,98166.28
2022-10-03T21:58:49.874Z,98173.94
2022-10-03T22:01:26.092Z,98173.28
2022-10-03T22:04:01.103Z,98169.91
2022-10-03T22:06:35.780Z,98170.09
2022-10-03T22:09:07.060Z,98166.72
2022-10-03T22:11:43.194Z,98176.28
2022-10-03T22:14:23.409Z,98171.66
2022-10-03T22:17:00.211Z,98170.69
2022-10-03T22:19:36.849Z,98163.38
2022-10-03T22:22:16.955Z,98171.19
2022-10-03T22:24:56.299Z,98164.97
2022-10-03T22:27:33.066Z,98165.41
2022-10-03T22:30:06.283Z,98164.28
2022-10-03T22:32:41.519Z,98165.41
2022-10-03T22:35:23.763Z,98164.16
2022-10-03T22:37:52.137Z,98156.59
2022-10-03T22:40:20.409Z,98159.81
2022-10-03T22:42:55.109Z,98163.50
2022-10-03T22:45:27.699Z,98162.03
2022-10-03T22:47:57.193Z,98164.63
2022-10-03T22:50:30.113Z,98165.75
2022-10-03T22:53:00.585Z,98165.59
2022-10-03T22:55:31.121Z,98166.53
2022-10-03T22:58:02.123Z,98168.50
2022-10-03T23:00:35.484Z,98158.41
2022-10-03T23:03:09.181Z,98166.41
2022-10-03T23:05:59.145Z,98151.91
2022-10-03T23:08:39.699Z,98154.16
2022-10-03T23:11:15.504Z,98150.97
2022-10-03T23:13:45.697Z,98160.06
2022-10-03T23:16:37.242Z,98153.50
2022-10-03T23:19:23.120Z,98159.59
2022-10-03T23:21:53.598Z,98139.06
2022-10-03T23:24:28.829Z,98145.16
2022-10-03T23:27:09.965Z,98149.66
2022-10-03T23:29:39.368Z,98142.84
2022-10-03T23:32:09.179Z,98150.03
2022-10-03T23:34:49.044Z,98135.47
2022-10-03T23:37:43.255Z,98147.41
2022-10-03T23:40:41.334Z,98145.56
2022-10-03T23:43:34.077Z,98144.09
2022-10-03T23:46:05.639Z,98145.56
2022-10-03T23:48:43.603Z,98143.47
2022-10-03T23:51:15.329Z,98143.66
2022-10-03T23:53:47.080Z,98140.75
2022-10-03T23:56:35.697Z,98133.19
2022-10-03T23:59:18.121Z,98135.84
